メインページ
METAR-TAF:

METAR-TAF

空港 :

ウェーク島, アメリカ合衆国

緯度: 19-17N, 経度: 166-39E, 海抜: 4m

現時点の気象観測

当レポートは7時間14分前の09:58(UTC)に作成
東/北東の風 9kt
気温 28°C
湿度 79%
気圧 1014 hPa
視程10km以上
高度1700ftの雲はほとんどない

METAR: PWAK 220958Z AUTO 07009KT 9999 FEW017 28/24 A2993 RMK AO2 SLPNO

時間: 05:12 (17:12 UTC)

予報

当レポートは3時間12分前の14:00(UTC)に作成
予報は22日の 14時(UTC)から 23日の 20時(UTC)まで有効
の風 8kt
視程10km以上
高度1700ftの雲はほとんどない
高度3500ftの千切れ雲あり
近辺でにわか雨
22日の 14時(UTC)から 22日の 19時(UTC)まで一時的に
の風 9kt
視程: 2222m
高度1500ftの千切れ雲あり
弱いにわか雨

TAF: PWAK 221400Z 2214/2320 08008KT 9999 VCSH FEW017 BKN035 QNH2989INS TEMPO 2214/2219 08009KT 8000 -SHRA BKN015 TX29/2214Z TN27/2220Z LIMITED METWATCH 2214 TIL 2222

4,000以上の空港の気象観測と天気予報(METAR報とTAF報)

利用可能な観測所は地図上に黄色い丸と赤い丸で示す。

丸の上にカーソルを重ねると観測所名を参照できる。

次にクリックすると気象観測と天気予報を参照できる。

マップの切り替え:黒色「×」印の緑ボタンをクリックして拡大、「-」印の緑ボタンをクリックして縮小、緑色の三角印をクリックして隣りの地図に切り替え


METAR-TAF: